Time;durP1;ratioP1;P1;durP2;ratioP2;P2;SDS_P1;SDS_P2;PMS_P1;PMS_P2;Temp;Humidity;BMP_temperature;BMP_pressure;BME280_temperature;BME280_humidity;BME280_pressure;Samples;Min_cycle;Max_cycle;Signal;HPM_P1;HPM_P2
2021/03/19 00:00:58;;;;;;;12.73;7.25;;;2.00;74.80;;;;;;5054250;28;20096;-74
2021/03/19 00:03:23;;;;;;;15.45;6.25;;;2.00;74.60;;;;;;5054141;28;20029;-74
2021/03/19 00:05:49;;;;;;;12.90;6.65;;;2.00;74.30;;;;;;5054282;28;20428;-74
2021/03/19 00:08:15;;;;;;;13.50;6.38;;;2.00;74.10;;;;;;5036342;28;20478;-75
2021/03/19 00:10:40;;;;;;;11.98;6.55;;;2.00;74.00;;;;;;5053800;28;20417;-75
2021/03/19 00:13:09;;;;;;;15.68;7.40;;;2.00;74.10;;;;;;5054031;28;20033;-74
2021/03/19 00:15:35;;;;;;;10.70;6.53;;;2.00;74.10;;;;;;5054125;28;20053;-74
2021/03/19 00:18:01;;;;;;;10.93;6.18;;;2.00;73.90;;;;;;5036163;28;20021;-74
2021/03/19 00:20:28;;;;;;;12.15;6.35;;;2.10;73.90;;;;;;5036141;28;20386;-73
2021/03/19 00:22:54;;;;;;;11.23;6.05;;;2.10;73.90;;;;;;5053959;28;20363;-73
2021/03/19 00:25:20;;;;;;;9.98;6.45;;;2.10;73.60;;;;;;5053913;28;20032;-74
2021/03/19 00:27:46;;;;;;;9.88;5.88;;;2.10;73.20;;;;;;5053738;28;20053;-74
2021/03/19 00:30:12;;;;;;;12.98;7.15;;;2.10;72.80;;;;;;5053625;28;20151;-73
2021/03/19 00:32:40;;;;;;;11.65;6.40;;;2.00;72.50;;;;;;5035461;28;20469;-74
2021/03/19 00:35:07;;;;;;;8.73;5.57;;;2.00;72.50;;;;;;5035788;28;20033;-73
2021/03/19 00:37:32;;;;;;;10.45;5.90;;;2.00;72.10;;;;;;5035487;28;20048;-73
2021/03/19 00:39:58;;;;;;;9.65;4.93;;;1.90;71.80;;;;;;5035702;28;20370;-73
2021/03/19 00:42:24;;;;;;;12.02;5.85;;;1.90;71.60;;;;;;5035565;28;20037;-73
2021/03/19 00:44:50;;;;;;;10.20;6.40;;;1.90;71.30;;;;;;5053546;28;20025;-73
2021/03/19 00:47:15;;;;;;;10.30;6.13;;;1.80;71.10;;;;;;5035613;28;20445;-73
2021/03/19 00:49:41;;;;;;;10.63;5.63;;;1.90;71.00;;;;;;5035744;28;20075;-73
2021/03/19 00:52:06;;;;;;;7.30;5.38;;;1.90;70.50;;;;;;5053434;28;20033;-73
2021/03/19 00:54:32;;;;;;;12.55;5.78;;;1.90;70.00;;;;;;5053388;28;20304;-73
2021/03/19 00:56:58;;;;;;;10.32;4.97;;;2.00;69.60;;;;;;5053244;28;20036;-73
2021/03/19 00:59:24;;;;;;;9.43;5.22;;;2.10;69.50;;;;;;5053286;28;20047;-73
2021/03/19 01:01:50;;;;;;;12.27;5.43;;;2.10;69.60;;;;;;5035106;28;20029;-73
2021/03/19 01:04:15;;;;;;;10.63;5.50;;;2.20;69.70;;;;;;5053159;28;20021;-73
2021/03/19 01:06:41;;;;;;;10.00;5.78;;;2.20;69.70;;;;;;5053139;28;20037;-74
2021/03/19 01:09:08;;;;;;;11.27;5.88;;;2.30;69.80;;;;;;5051717;28;20021;-74
2021/03/19 01:11:33;;;;;;;14.40;6.88;;;2.30;69.80;;;;;;5053022;28;20029;-73
2021/03/19 01:13:59;;;;;;;11.57;6.18;;;2.30;70.20;;;;;;5052676;28;20017;-73
2021/03/19 01:16:25;;;;;;;11.20;5.80;;;2.20;70.70;;;;;;5052954;28;20458;-74
2021/03/19 01:18:51;;;;;;;10.15;5.70;;;2.30;71.30;;;;;;5052767;28;20028;-73
2021/03/19 01:21:17;;;;;;;10.95;6.03;;;2.30;71.50;;;;;;5052514;28;20033;-73
2021/03/19 01:23:45;;;;;;;11.65;5.50;;;2.40;71.60;;;;;;5034936;28;20071;-73
2021/03/19 01:26:12;;;;;;;10.30;6.40;;;2.30;71.80;;;;;;5052585;28;20491;-73
2021/03/19 01:28:37;;;;;;;10.60;6.40;;;2.30;72.10;;;;;;5034845;28;20118;-73
2021/03/19 01:31:03;;;;;;;8.63;5.90;;;2.20;72.40;;;;;;5034588;28;20060;-73
2021/03/19 01:33:29;;;;;;;13.68;6.55;;;2.20;72.80;;;;;;5051374;28;20025;-73
2021/03/19 01:35:54;;;;;;;11.93;5.88;;;2.20;72.70;;;;;;5052425;28;20055;-73
2021/03/19 01:38:20;;;;;;;11.43;6.25;;;2.20;72.60;;;;;;5034797;28;20037;-74
2021/03/19 01:40:47;;;;;;;10.52;6.20;;;2.20;72.60;;;;;;5052486;28;20055;-73
2021/03/19 01:43:36;;;;;;;12.15;6.00;;;2.20;72.60;;;;;;5052714;28;20029;-74
2021/03/19 01:46:04;;;;;;;12.60;5.63;;;2.20;72.80;;;;;;5052644;28;20461;-74
2021/03/19 01:49:07;;;;;;;12.07;6.82;;;2.20;73.20;;;;;;5052643;28;20025;-74
2021/03/19 01:52:10;;;;;;;12.70;6.10;;;2.10;73.70;;;;;;5052440;28;20060;-74
2021/03/19 01:55:14;;;;;;;9.57;6.45;;;2.00;74.10;;;;;;5052515;28;20028;-73
2021/03/19 01:58:16;;;;;;;12.07;6.72;;;2.00;74.30;;;;;;5052574;28;20021;-72
2021/03/19 02:01:20;;;;;;;10.77;6.43;;;2.00;74.70;;;;;;5034591;28;20386;-73
2021/03/19 02:04:23;;;;;;;11.02;6.85;;;2.00;74.70;;;;;;5034738;28;20025;-74
2021/03/19 02:07:26;;;;;;;8.98;5.80;;;2.00;74.70;;;;;;5034538;28;20075;-73
2021/03/19 02:10:29;;;;;;;8.85;5.65;;;2.00;74.60;;;;;;5052372;28;20055;-73
2021/03/19 02:13:32;;;;;;;8.70;5.50;;;2.00;74.50;;;;;;5052363;28;20032;-73
2021/03/19 02:16:35;;;;;;;10.52;6.55;;;2.00;74.60;;;;;;5056122;28;20025;-73
2021/03/19 02:19:38;;;;;;;10.00;6.22;;;2.00;74.80;;;;;;5038353;28;20481;-74
2021/03/19 02:22:41;;;;;;;8.32;6.05;;;1.90;75.00;;;;;;5056046;28;20340;-74
2021/03/19 02:25:44;;;;;;;11.10;6.22;;;1.90;75.20;;;;;;5055899;28;20060;-73
2021/03/19 02:28:47;;;;;;;9.45;5.85;;;1.80;75.50;;;;;;5038032;28;20143;-73
2021/03/19 02:31:13;;;;;;;10.00;7.22;;;1.80;75.80;;;;;;5037835;28;20370;-74
2021/03/19 02:34:00;;;;;;;11.18;6.72;;;1.70;76.10;;;;;;5055948;28;20029;-74
2021/03/19 02:36:28;;;;;;;10.95;6.70;;;1.70;76.60;;;;;;5055555;28;20493;-73
2021/03/19 02:38:54;;;;;;;8.95;5.95;;;1.60;76.70;;;;;;5055739;28;20021;-73
2021/03/19 02:41:20;;;;;;;11.68;7.00;;;1.60;76.80;;;;;;5055529;28;20040;-73
2021/03/19 02:43:46;;;;;;;10.52;6.78;;;1.50;77.00;;;;;;5037548;28;20029;-73
2021/03/19 02:46:12;;;;;;;9.23;6.18;;;1.50;77.20;;;;;;5055602;28;20120;-73
2021/03/19 02:48:38;;;;;;;14.63;6.70;;;1.50;77.30;;;;;;5037948;28;20079;-74
2021/03/19 02:51:06;;;;;;;10.02;7.07;;;1.40;77.30;;;;;;5037774;28;20440;-74
2021/03/19 02:53:33;;;;;;;13.55;8.25;;;1.40;77.50;;;;;;5037684;28;20021;-74
2021/03/19 02:56:02;;;;;;;12.02;7.50;;;1.30;77.40;;;;;;5055166;28;20053;-74
2021/03/19 02:58:28;;;;;;;16.42;7.40;;;1.40;77.40;;;;;;5055322;28;20025;-74
2021/03/19 03:00:54;;;;;;;10.30;6.68;;;1.30;77.10;;;;;;5055321;28;20021;-74
2021/03/19 03:03:19;;;;;;;12.48;7.07;;;1.30;76.90;;;;;;5055206;28;20381;-75
2021/03/19 03:05:45;;;;;;;12.15;7.30;;;1.30;77.00;;;;;;5055292;28;20021;-74
2021/03/19 03:08:14;;;;;;;11.90;6.40;;;1.20;76.90;;;;;;5055238;28;20029;-74
2021/03/19 03:10:42;;;;;;;11.40;6.82;;;1.10;76.90;;;;;;5055330;28;20071;-74
2021/03/19 03:13:08;;;;;;;10.60;6.22;;;1.10;77.00;;;;;;5055514;28;20025;-74
2021/03/19 03:15:35;;;;;;;8.80;5.68;;;1.10;76.90;;;;;;5054929;28;20040;-74
2021/03/19 03:18:01;;;;;;;10.35;5.78;;;1.00;76.70;;;;;;5054930;28;20405;-72
2021/03/19 03:20:32;;;;;;;11.73;6.10;;;0.90;77.10;;;;;;5037212;28;20029;-72
2021/03/19 03:22:58;;;;;;;7.93;5.32;;;0.80;77.30;;;;;;5036901;28;20036;-72
2021/03/19 03:25:24;;;;;;;12.00;5.93;;;0.70;78.40;;;;;;5035944;28;20029;-72
2021/03/19 03:27:51;;;;;;;9.65;5.45;;;0.70;77.60;;;;;;5036807;28;20367;-73
2021/03/19 03:30:21;;;;;;;10.35;5.70;;;0.70;77.20;;;;;;5055094;28;20481;-73
2021/03/19 03:32:47;;;;;;;9.95;5.53;;;0.60;77.00;;;;;;5037450;28;20025;-72
2021/03/19 03:35:15;;;;;;;10.10;5.53;;;0.60;77.00;;;;;;5037493;28;20025;-72
2021/03/19 03:37:41;;;;;;;11.93;5.97;;;0.50;77.30;;;;;;5037007;28;20041;-73
2021/03/19 03:40:10;;;;;;;12.10;6.25;;;0.50;77.60;;;;;;5037529;28;20079;-72
2021/03/19 03:42:35;;;;;;;17.20;7.28;;;0.50;77.50;;;;;;5055400;28;20533;-72
2021/03/19 03:45:02;;;;;;;11.18;6.25;;;0.40;77.40;;;;;;5037416;28;20057;-72
2021/03/19 03:47:27;;;;;;;7.93;5.55;;;0.40;77.30;;;;;;5037460;28;20025;-72
2021/03/19 03:49:53;;;;;;;10.63;5.65;;;0.40;77.50;;;;;;5037269;28;20028;-75
2021/03/19 03:52:18;;;;;;;10.45;6.18;;;0.40;77.30;;;;;;5037288;28;20036;-75
2021/03/19 03:54:44;;;;;;;9.70;5.38;;;0.40;77.00;;;;;;5041871;28;20021;-76
2021/03/19 03:57:09;;;;;;;9.25;5.78;;;0.30;76.90;;;;;;5041892;28;20025;-73
2021/03/19 03:59:35;;;;;;;8.88;5.95;;;0.40;76.70;;;;;;5057764;28;20021;-73
2021/03/19 04:02:16;;;;;;;11.90;6.53;;;0.30;76.80;;;;;;5055018;28;20048;-73
2021/03/19 04:04:41;;;;;;;10.13;6.05;;;0.40;76.80;;;;;;5037001;28;20018;-72
2021/03/19 04:07:07;;;;;;;12.55;6.30;;;0.40;76.60;;;;;;5036864;28;20358;-73
2021/03/19 04:09:32;;;;;;;8.63;6.07;;;0.30;76.50;;;;;;5054738;28;20025;-73
2021/03/19 04:11:58;;;;;;;11.25;5.93;;;0.40;76.50;;;;;;5054742;28;20039;-73
2021/03/19 04:14:23;;;;;;;12.05;5.70;;;0.40;76.20;;;;;;5036404;28;20021;-73
2021/03/19 04:16:49;;;;;;;8.90;5.97;;;0.30;76.30;;;;;;5054683;28;20151;-73
2021/03/19 04:19:15;;;;;;;10.73;6.45;;;0.30;76.10;;;;;;5054530;28;20029;-73
2021/03/19 04:21:40;;;;;;;9.73;5.70;;;0.30;76.30;;;;;;5036376;28;20116;-73
2021/03/19 04:24:06;;;;;;;15.93;5.65;;;0.30;76.40;;;;;;5054544;28;20016;-73
2021/03/19 04:26:35;;;;;;;8.82;5.35;;;0.30;76.80;;;;;;5054504;28;20025;-73
2021/03/19 04:29:02;;;;;;;8.82;5.30;;;0.30;76.90;;;;;;5054343;28;20025;-74
2021/03/19 04:31:28;;;;;;;9.95;5.60;;;0.40;76.90;;;;;;5054337;28;20036;-73
2021/03/19 04:33:53;;;;;;;9.13;5.32;;;0.40;76.70;;;;;;5036431;28;20025;-73
2021/03/19 04:36:41;;;;;;;10.25;6.10;;;0.40;76.50;;;;;;5053998;28;20049;-73
2021/03/19 04:39:10;;;;;;;8.85;5.93;;;0.50;76.30;;;;;;5054342;28;20017;-73
2021/03/19 04:41:36;;;;;;;10.82;6.65;;;0.60;76.00;;;;;;5053820;28;20036;-72
2021/03/19 04:44:04;;;;;;;12.85;6.30;;;0.70;75.70;;;;;;5036241;28;20025;-72
2021/03/19 04:46:29;;;;;;;11.95;6.03;;;0.60;75.30;;;;;;5036008;28;20021;-73
2021/03/19 04:48:55;;;;;;;11.68;6.90;;;0.60;75.40;;;;;;5035747;28;20056;-75
2021/03/19 04:51:21;;;;;;;10.38;6.53;;;0.60;75.30;;;;;;5053872;28;20021;-74
2021/03/19 04:53:46;;;;;;;13.75;7.22;;;0.60;75.20;;;;;;5053357;28;20096;-73
2021/03/19 04:56:12;;;;;;;11.73;7.13;;;0.60;75.20;;;;;;5053655;28;20025;-73
2021/03/19 04:58:37;;;;;;;12.63;7.68;;;0.60;75.60;;;;;;5053805;28;20028;-73
2021/03/19 05:01:03;;;;;;;14.35;8.02;;;0.60;75.60;;;;;;5035782;28;20029;-73
2021/03/19 05:03:30;;;;;;;13.48;7.15;;;0.60;75.40;;;;;;5053777;28;20420;-73
2021/03/19 05:05:56;;;;;;;12.73;5.97;;;0.60;75.20;;;;;;5035518;28;20025;-73
2021/03/19 05:08:21;;;;;;;16.77;7.25;;;0.60;75.20;;;;;;5053681;28;20035;-73
2021/03/19 05:10:47;;;;;;;11.80;6.88;;;0.50;75.10;;;;;;5053534;28;20045;-73
2021/03/19 05:13:13;;;;;;;10.70;6.70;;;0.50;75.20;;;;;;5035830;28;20067;-73
2021/03/19 05:15:38;;;;;;;9.65;6.32;;;0.60;75.10;;;;;;5053530;28;20021;-73
2021/03/19 05:18:05;;;;;;;15.18;7.45;;;0.60;74.90;;;;;;5032111;28;20041;-73
2021/03/19 05:20:31;;;;;;;16.70;7.68;;;0.60;74.80;;;;;;5031273;28;20048;-73
2021/03/19 05:22:57;;;;;;;11.82;6.75;;;0.50;74.60;;;;;;5035557;28;20509;-73
2021/03/19 05:25:30;;;;;;;10.07;6.10;;;0.50;74.90;;;;;;5053229;28;20113;-73
2021/03/19 05:27:55;;;;;;;9.10;6.15;;;0.50;75.30;;;;;;5035249;28;20036;-73
2021/03/19 05:30:23;;;;;;;12.07;6.80;;;0.50;75.20;;;;;;5053043;28;20029;-74
2021/03/19 05:32:49;;;;;;;10.73;6.18;;;0.50;75.00;;;;;;5035386;28;20082;-73
2021/03/19 05:35:17;;;;;;;12.82;6.82;;;0.50;75.00;;;;;;5035158;28;20025;-73
2021/03/19 05:37:45;;;;;;;11.75;6.03;;;0.40;75.20;;;;;;5053000;28;20033;-73
2021/03/19 05:40:20;;;;;;;13.23;6.63;;;0.30;75.40;;;;;;5035226;28;20033;-73
2021/03/19 05:42:46;;;;;;;14.35;6.68;;;0.40;75.40;;;;;;5053071;28;20044;-73
2021/03/19 05:45:14;;;;;;;15.32;7.72;;;0.40;75.50;;;;;;5052678;28;20107;-73
2021/03/19 05:47:40;;;;;;;10.57;6.70;;;0.50;75.50;;;;;;5052849;28;20025;-73
2021/03/19 05:50:16;;;;;;;12.05;7.22;;;0.40;75.40;;;;;;5034092;28;20492;-74
2021/03/19 05:52:43;;;;;;;14.10;8.90;;;0.50;75.30;;;;;;5052832;28;20100;-73
2021/03/19 05:55:19;;;;;;;12.02;7.40;;;0.50;75.20;;;;;;5052441;28;20477;-73
2021/03/19 05:57:45;;;;;;;16.23;8.48;;;0.50;75.10;;;;;;5052630;28;20037;-73
2021/03/19 06:00:17;;;;;;;14.75;8.02;;;0.50;75.20;;;;;;5034925;28;20112;-73
2021/03/19 06:02:43;;;;;;;10.75;6.90;;;0.50;75.20;;;;;;5034780;28;20083;-73
2021/03/19 06:05:15;;;;;;;12.68;7.32;;;0.50;75.30;;;;;;5052619;28;20053;-74
2021/03/19 06:07:47;;;;;;;13.45;7.82;;;0.50;75.50;;;;;;5052835;28;20024;-73
2021/03/19 06:10:21;;;;;;;14.18;7.43;;;0.60;75.50;;;;;;5052437;28;20392;-73
2021/03/19 06:12:49;;;;;;;14.65;7.82;;;0.70;75.20;;;;;;5052613;28;20025;-73
2021/03/19 06:15:25;;;;;;;15.38;7.78;;;0.70;75.00;;;;;;5052631;28;20021;-73
2021/03/19 06:17:51;;;;;;;16.00;8.77;;;0.80;74.80;;;;;;5052686;28;20025;-73
2021/03/19 06:20:19;;;;;;;14.63;8.18;;;0.80;74.70;;;;;;5034456;28;20048;-73
2021/03/19 06:22:48;;;;;;;12.75;7.32;;;1.00;74.40;;;;;;5034110;28;20037;-73
2021/03/19 06:25:40;;;;;;;18.00;8.40;;;0.90;73.90;;;;;;5034330;28;20033;-73
2021/03/19 06:28:33;;;;;;;18.23;10.32;;;1.10;73.80;;;;;;5034521;28;20094;-73
2021/03/19 06:31:24;;;;;;;13.63;8.18;;;1.10;73.30;;;;;;5034082;28;20029;-73
2021/03/19 06:34:13;;;;;;;16.40;8.70;;;1.10;72.90;;;;;;5034208;28;20052;-73
2021/03/19 06:37:00;;;;;;;15.00;8.63;;;1.20;72.70;;;;;;5029966;28;20042;-73
2021/03/19 06:39:30;;;;;;;13.50;7.45;;;1.20;72.70;;;;;;5042107;28;20114;-73
2021/03/19 06:42:05;;;;;;;14.18;8.05;;;1.30;72.60;;;;;;5052201;28;20409;-74
2021/03/19 06:44:33;;;;;;;;;;;1.40;72.50;;;;;;5052664;28;20025;-72
2021/03/19 06:47:02;;;;;;;12.43;7.25;;;1.40;72.00;;;;;;5034268;28;19996;-74
2021/03/19 06:49:48;;;;;;;18.25;7.53;;;1.50;71.70;;;;;;5034305;28;20094;-73
2021/03/19 06:52:27;;;;;;;13.13;7.55;;;1.50;71.60;;;;;;5034473;28;20075;-73
2021/03/19 06:55:01;;;;;;;14.43;7.70;;;1.60;71.60;;;;;;5034280;28;20025;-75
2021/03/19 06:57:42;;;;;;;12.73;6.97;;;1.60;71.30;;;;;;5034303;28;20074;-74
2021/03/19 07:00:09;;;;;;;13.65;8.00;;;1.70;72.10;;;;;;5035001;28;20029;-75
2021/03/19 07:02:56;;;;;;;12.02;7.78;;;1.90;71.90;;;;;;5055705;28;20033;-75
2021/03/19 07:05:49;;;;;;;14.68;7.80;;;2.10;71.30;;;;;;5055771;28;20075;-73
2021/03/19 07:08:25;;;;;;;12.10;7.57;;;2.30;70.50;;;;;;5055870;28;20049;-72
2021/03/19 07:11:06;;;;;;;11.43;7.05;;;2.40;69.80;;;;;;5055967;28;20047;-74
2021/03/19 07:13:45;;;;;;;12.20;7.28;;;2.50;69.20;;;;;;5055736;28;20044;-74
2021/03/19 07:16:16;;;;;;;12.43;6.90;;;2.50;68.80;;;;;;5055393;28;20115;-75
2021/03/19 07:19:03;;;;;;;10.27;6.47;;;2.60;69.10;;;;;;5037651;28;20441;-75
2021/03/19 07:21:59;;;;;;;10.48;6.50;;;2.70;68.80;;;;;;5054300;28;20086;-74
2021/03/19 07:24:28;;;;;;;;;;;2.70;68.80;;;;;;5055893;28;20025;-75
2021/03/19 07:27:15;;;;;;;10.80;6.75;;;2.80;68.20;;;;;;5055223;28;19905;-76
2021/03/19 07:30:15;;;;;;;14.88;8.35;;;2.80;68.00;;;;;;5055357;28;20021;-75
2021/03/19 07:33:05;;;;;;;12.70;6.90;;;2.90;68.10;;;;;;5055563;28;20021;-76
2021/03/19 07:35:47;;;;;;;9.65;5.88;;;2.90;68.40;;;;;;5055316;28;20032;-74
2021/03/19 07:38:28;;;;;;;9.90;6.90;;;2.90;69.10;;;;;;5037634;28;20028;-74
2021/03/19 07:41:22;;;;;;;14.65;9.18;;;3.10;69.50;;;;;;5037635;28;20093;-74
2021/03/19 07:44:15;;;;;;;19.40;12.52;;;3.20;69.60;;;;;;5042576;23;20056;-76
2021/03/19 07:47:00;;;;;;;20.77;11.57;;;3.30;69.10;;;;;;5037202;28;20021;-74
2021/03/19 07:49:37;;;;;;;14.52;9.73;;;3.50;68.80;;;;;;5037120;28;20037;-74
2021/03/19 07:52:29;;;;;;;13.68;8.45;;;3.60;68.30;;;;;;5036790;28;20021;-74
2021/03/19 07:55:20;;;;;;;12.52;6.88;;;3.90;67.70;;;;;;5054878;28;20025;-75
2021/03/19 07:58:07;;;;;;;11.02;6.60;;;4.00;66.40;;;;;;5036691;28;20107;-74
2021/03/19 08:00:40;;;;;;;10.23;6.25;;;4.20;66.20;;;;;;5054692;28;20032;-74
2021/03/19 08:03:17;;;;;;;12.35;6.35;;;4.50;65.40;;;;;;5036604;28;20037;-74
2021/03/19 08:05:52;;;;;;;10.23;5.60;;;4.80;64.10;;;;;;5036721;28;20035;-74
2021/03/19 08:08:33;;;;;;;8.82;4.38;;;5.00;62.90;;;;;;5054470;28;20044;-74
2021/03/19 08:11:34;;;;;;;9.50;5.85;;;5.30;62.00;;;;;;5036345;28;20025;-74
2021/03/19 08:14:41;;;;;;;10.02;5.70;;;5.50;61.20;;;;;;5030551;28;20501;-74
2021/03/19 08:17:21;;;;;;;12.45;6.63;;;5.90;60.10;;;;;;5045229;28;20118;-74
2021/03/19 08:20:00;;;;;;;8.98;6.85;;;5.90;58.10;;;;;;5036813;28;20025;-74
2021/03/19 08:22:25;;;;;;;8.77;6.05;;;5.90;57.30;;;;;;5036648;28;20062;-76
2021/03/19 08:25:05;;;;;;;9.38;5.45;;;6.00;59.10;;;;;;5036416;28;20021;-76
2021/03/19 08:36:27;;;;;;;9.45;5.25;;;7.50;61.00;;;;;;5853095;23;20052;-77
2021/03/19 08:42:11;;;;;;;18.80;5.97;;;8.50;56.40;;;;;;5061204;23;20051;-77
2021/03/19 08:44:39;;;;;;;8.68;4.97;;;8.60;54.10;;;;;;5035903;28;20477;-76
2021/03/19 08:47:25;;;;;;;8.60;5.10;;;8.60;54.40;;;;;;5035703;28;20025;-75
2021/03/19 08:49:57;;;;;;;8.20;5.25;;;8.50;53.90;;;;;;5054043;28;20021;-75
2021/03/19 08:52:34;;;;;;;10.27;4.60;;;8.50;52.80;;;;;;5035796;28;20390;-75
2021/03/19 08:55:33;;;;;;;7.90;5.00;;;8.40;52.80;;;;;;5060470;23;20025;-75
2021/03/19 08:58:30;;;;;;;7.53;5.20;;;8.30;52.20;;;;;;5030495;28;20451;-74
2021/03/19 09:01:48;;;;;;;9.23;5.40;;;8.20;52.30;;;;;;5033667;28;20032;-77
2021/03/19 09:04:14;;;;;;;7.40;4.70;;;8.10;53.10;;;;;;4956589;28;20035;-76
2021/03/19 09:07:18;;;;;;;7.40;5.38;;;7.90;53.20;;;;;;4972816;28;20031;-75
2021/03/19 09:09:44;;;;;;;11.13;6.80;;;7.70;53.30;;;;;;5023616;28;20079;-74
2021/03/19 09:12:13;;;;;;;11.95;6.47;;;6.90;52.40;;;;;;5032151;28;20437;-74
2021/03/19 09:14:43;;;;;;;12.73;7.07;;;6.50;53.40;;;;;;5033693;28;20025;-74
2021/03/19 09:17:34;;;;;;;10.48;7.63;;;6.10;54.90;;;;;;5033426;28;20030;-75
2021/03/19 09:20:28;;;;;;;11.15;8.05;;;5.80;56.40;;;;;;5033340;28;20022;-74
2021/03/19 09:23:10;;;;;;;15.40;8.57;;;5.60;58.20;;;;;;5010340;28;20045;-75
2021/03/19 09:25:46;;;;;;;16.40;8.13;;;5.40;59.60;;;;;;5033366;28;20048;-74
2021/03/19 09:28:17;;;;;;;10.82;7.63;;;5.30;60.80;;;;;;5032130;28;20064;-74
2021/03/19 09:30:51;;;;;;;11.45;8.02;;;5.30;61.50;;;;;;5033338;28;20052;-73
2021/03/19 09:33:44;;;;;;;9.90;7.50;;;5.30;61.80;;;;;;5033275;28;20029;-73
2021/03/19 09:37:04;;;;;;;11.32;7.03;;;5.50;61.70;;;;;;5033101;28;20105;-73
2021/03/19 09:39:52;;;;;;;14.05;7.38;;;5.60;60.80;;;;;;4972193;28;20027;-74
2021/03/19 09:42:17;;;;;;;9.75;7.30;;;5.80;60.50;;;;;;5029047;28;20045;-73
2021/03/19 09:44:44;;;;;;;13.80;7.55;;;6.00;60.00;;;;;;5033028;28;20032;-74
2021/03/19 09:47:10;;;;;;;12.20;7.20;;;6.30;59.50;;;;;;5031717;28;20037;-74
2021/03/19 09:49:36;;;;;;;12.35;7.80;;;6.50;59.00;;;;;;5032847;28;20025;-73
2021/03/19 09:52:21;;;;;;;10.70;7.43;;;6.70;58.20;;;;;;5031757;28;20025;-74
2021/03/19 09:54:48;;;;;;;10.13;6.30;;;6.70;57.10;;;;;;5032889;28;20381;-73
2021/03/19 09:57:25;;;;;;;7.55;6.25;;;6.80;56.60;;;;;;5050968;28;20482;-73
2021/03/19 10:00:14;;;;;;;14.18;7.00;;;7.00;56.00;;;;;;5052759;28;20385;-73
2021/03/19 10:02:40;;;;;;;9.80;6.93;;;7.20;55.20;;;;;;5052626;28;20339;-74
2021/03/19 10:05:16;;;;;;;8.65;6.88;;;7.10;54.30;;;;;;5052323;28;20456;-72
2021/03/19 10:08:02;;;;;;;9.52;6.78;;;7.00;54.90;;;;;;5052543;28;20035;-72
2021/03/19 10:10:41;;;;;;;9.43;7.03;;;7.10;55.50;;;;;;5052298;28;20033;-74
2021/03/19 10:13:25;;;;;;;9.73;6.40;;;7.20;55.70;;;;;;5052289;28;20501;-74
2021/03/19 10:15:55;;;;;;;12.45;6.93;;;7.10;55.20;;;;;;5052466;28;20049;-74
2021/03/19 10:18:27;;;;;;;8.93;6.80;;;6.90;55.00;;;;;;5034447;28;20111;-73
2021/03/19 10:21:06;;;;;;;10.82;7.10;;;6.80;55.20;;;;;;5052505;28;20386;-73
2021/03/19 10:23:38;;;;;;;10.90;8.18;;;6.80;56.30;;;;;;5034690;28;20033;-73
2021/03/19 10:26:17;;;;;;;12.15;8.05;;;6.80;57.50;;;;;;5052446;28;20048;-73
2021/03/19 10:28:46;;;;;;;10.55;7.88;;;6.60;59.20;;;;;;5052557;28;20017;-73
2021/03/19 10:31:18;;;;;;;11.80;8.38;;;6.40;61.30;;;;;;5052219;28;20024;-73
2021/03/19 10:33:58;;;;;;;11.63;8.00;;;6.10;63.00;;;;;;5052408;28;20032;-73
2021/03/19 10:36:44;;;;;;;15.27;9.20;;;5.90;64.90;;;;;;5055226;28;20029;-73
2021/03/19 10:39:24;;;;;;;15.95;9.40;;;5.70;66.90;;;;;;5056176;28;20025;-73
2021/03/19 10:42:19;;;;;;;10.05;7.13;;;5.60;68.80;;;;;;5056224;28;20033;-74
2021/03/19 10:45:03;;;;;;;9.52;7.07;;;5.30;70.30;;;;;;5056087;28;20087;-73
2021/03/19 10:47:36;;;;;;;7.97;6.03;;;5.20;71.00;;;;;;5037895;28;20029;-74
2021/03/19 10:50:08;;;;;;;7.97;5.88;;;5.10;71.60;;;;;;5055771;28;20017;-73
2021/03/19 10:52:42;;;;;;;8.50;5.75;;;5.20;72.00;;;;;;5055709;28;20424;-73
2021/03/19 10:55:32;;;;;;;5.90;4.78;;;5.20;71.60;;;;;;5055582;28;20104;-74
2021/03/19 10:58:20;;;;;;;6.57;5.50;;;4.90;72.40;;;;;;5037979;28;20060;-74
2021/03/19 11:00:49;;;;;;;7.32;4.93;;;4.70;73.70;;;;;;5055828;28;20115;-72
2021/03/19 11:03:33;;;;;;;6.97;5.15;;;4.70;73.60;;;;;;5055609;28;20035;-73
2021/03/19 11:06:01;;;;;;;4.93;4.00;;;4.70;73.90;;;;;;5055657;28;20013;-73
2021/03/19 11:08:27;;;;;;;5.93;4.97;;;4.70;73.60;;;;;;5055553;28;20032;-73
2021/03/19 11:10:54;;;;;;;5.93;5.32;;;4.70;73.10;;;;;;5055593;28;20018;-73
2021/03/19 11:13:30;;;;;;;6.70;5.63;;;4.70;73.50;;;;;;5055346;28;20473;-73
2021/03/19 11:15:58;;;;;;;8.63;6.13;;;4.70;73.60;;;;;;5037483;28;20025;-74
2021/03/19 11:18:37;;;;;;;8.27;6.07;;;4.60;73.30;;;;;;5055336;28;20377;-73
2021/03/19 11:21:06;;;;;;;8.10;6.57;;;4.70;74.80;;;;;;5055155;28;20026;-73
2021/03/19 11:23:48;;;;;;;9.50;6.05;;;4.90;75.20;;;;;;5037580;28;20033;-72
2021/03/19 11:26:22;;;;;;;8.10;6.38;;;5.70;74.80;;;;;;5055300;28;20047;-72
2021/03/19 11:28:48;;;;;;;10.05;6.10;;;6.50;73.10;;;;;;5055279;28;20025;-75
2021/03/19 11:31:33;;;;;;;9.85;7.03;;;6.60;68.10;;;;;;5055080;28;20535;-73
2021/03/19 11:34:13;;;;;;;11.23;8.07;;;6.30;67.70;;;;;;5037465;28;20036;-73
2021/03/19 11:37:03;;;;;;;12.43;8.20;;;5.90;67.80;;;;;;5055314;28;20535;-73
2021/03/19 11:39:40;;;;;;;11.55;8.45;;;5.70;68.40;;;;;;5054981;28;20087;-73
2021/03/19 11:42:09;;;;;;;13.38;8.93;;;5.30;69.30;;;;;;5036913;28;20090;-73
2021/03/19 11:44:36;;;;;;;12.20;9.48;;;5.20;70.30;;;;;;5055010;28;20025;-72
2021/03/19 11:47:23;;;;;;;9.73;7.68;;;5.20;71.10;;;;;;5035889;28;20044;-74
2021/03/19 11:49:51;;;;;;;10.52;7.82;;;5.40;70.80;;;;;;5054688;28;20052;-74
2021/03/19 11:52:19;;;;;;;13.90;9.10;;;5.40;69.90;;;;;;5036986;28;20091;-73
2021/03/19 11:54:46;;;;;;;13.20;8.55;;;5.10;71.10;;;;;;5054594;28;20473;-74
2021/03/19 11:57:12;;;;;;;6.78;5.32;;;5.00;71.90;;;;;;5037312;28;20055;-73
2021/03/19 11:59:37;;;;;;;5.40;4.43;;;4.70;73.00;;;;;;5037972;28;20136;-73
2021/03/19 12:02:40;;;;;;;6.97;5.07;;;4.30;73.70;;;;;;5036657;28;20036;-75
2021/03/19 12:05:11;;;;;;;5.72;4.38;;;4.10;74.60;;;;;;5036482;28;20033;-74
2021/03/19 12:07:36;;;;;;;6.22;4.88;;;4.10;75.30;;;;;;5054487;28;20452;-73
2021/03/19 12:10:06;;;;;;;6.30;4.57;;;4.10;75.70;;;;;;5036682;28;20136;-74
2021/03/19 12:12:32;;;;;;;6.55;4.63;;;4.10;75.80;;;;;;5054081;28;20100;-73
2021/03/19 12:14:58;;;;;;;5.28;3.88;;;4.10;75.90;;;;;;5036318;28;20127;-75
2021/03/19 12:17:24;;;;;;;9.93;5.68;;;4.00;76.50;;;;;;5054085;28;20021;-73
2021/03/19 12:19:51;;;;;;;4.95;3.90;;;3.90;77.40;;;;;;5035906;28;20017;-72
2021/03/19 12:22:17;;;;;;;4.40;3.67;;;3.90;77.70;;;;;;5035930;28;20032;-73
2021/03/19 12:24:43;;;;;;;5.20;3.60;;;3.90;77.00;;;;;;5036186;28;20055;-74
2021/03/19 12:27:09;;;;;;;7.07;3.80;;;3.90;75.10;;;;;;5035876;28;20104;-74
2021/03/19 12:29:35;;;;;;;4.68;3.65;;;4.00;73.80;;;;;;5054264;28;20066;-74
2021/03/19 12:32:00;;;;;;;6.47;4.40;;;4.10;73.40;;;;;;5053817;28;20025;-74
2021/03/19 12:34:26;;;;;;;7.90;6.10;;;4.30;73.20;;;;;;5053438;28;20040;-75
2021/03/19 12:36:52;;;;;;;7.70;6.18;;;4.50;73.20;;;;;;5053791;28;20021;-73
2021/03/19 12:39:19;;;;;;;9.35;6.22;;;4.70;73.00;;;;;;5053595;28;20197;-73
2021/03/19 12:41:46;;;;;;;8.32;6.53;;;4.90;72.90;;;;;;5053280;28;20033;-73
2021/03/19 12:44:12;;;;;;;15.95;10.80;;;5.00;71.90;;;;;;5053559;28;20086;-75
2021/03/19 12:46:39;;;;;;;10.23;7.47;;;5.00;71.90;;;;;;5053821;28;20029;-73
2021/03/19 12:49:05;;;;;;;8.52;7.13;;;5.00;72.00;;;;;;5053350;28;20025;-74
2021/03/19 12:51:31;;;;;;;9.65;7.30;;;5.10;71.50;;;;;;5053533;28;20025;-73
2021/03/19 12:53:57;;;;;;;10.50;7.50;;;5.20;71.20;;;;;;5044557;28;20087;-75
2021/03/19 12:56:22;;;;;;;9.30;6.95;;;5.30;70.50;;;;;;5033886;28;20502;-75
2021/03/19 12:58:48;;;;;;;9.73;7.57;;;5.40;69.80;;;;;;5031502;28;20030;-75
2021/03/19 13:01:18;;;;;;;8.88;7.60;;;5.60;68.60;;;;;;5035324;28;20242;-75
2021/03/19 13:03:44;;;;;;;9.45;6.60;;;5.70;67.90;;;;;;5034104;28;20044;-75
2021/03/19 13:06:10;;;;;;;8.77;7.03;;;6.20;66.50;;;;;;5052508;28;20382;-73
2021/03/19 13:08:36;;;;;;;7.97;6.43;;;6.50;64.60;;;;;;5053200;28;20029;-76
2021/03/19 13:11:02;;;;;;;8.35;6.82;;;6.80;63.80;;;;;;5053109;28;20025;-76
2021/03/19 13:13:28;;;;;;;9.35;6.97;;;7.40;61.90;;;;;;5053366;28;20021;-75
2021/03/19 13:15:54;;;;;;;8.10;5.75;;;8.00;62.20;;;;;;5053008;28;20043;-74
2021/03/19 13:18:19;;;;;;;5.38;4.38;;;8.50;59.50;;;;;;5053040;28;20021;-75
2021/03/19 13:20:45;;;;;;;4.35;3.30;;;8.20;57.40;;;;;;5052974;28;20028;-74
2021/03/19 13:23:12;;;;;;;3.63;3.15;;;7.00;59.60;;;;;;5052516;28;20033;-75
2021/03/19 13:25:41;;;;;;;4.22;3.70;;;6.40;62.90;;;;;;5052973;28;20032;-76
2021/03/19 13:28:07;;;;;;;4.38;3.58;;;5.60;66.40;;;;;;5053330;28;20024;-73
2021/03/19 13:30:34;;;;;;;4.45;3.75;;;5.00;69.80;;;;;;5035150;28;20029;-74
2021/03/19 13:33:00;;;;;;;5.05;3.35;;;4.70;72.00;;;;;;5052679;28;20025;-74
2021/03/19 13:35:32;;;;;;;3.58;2.90;;;4.40;74.10;;;;;;5052803;28;20029;-74